createdAt,value
2023-03-12T00:02:13.265Z,12.90
2023-03-12T00:04:40.181Z,14.77
2023-03-12T00:07:08.809Z,10.73
2023-03-12T00:09:37.467Z,13.20
2023-03-12T00:12:05.596Z,12.47
2023-03-12T00:14:33.047Z,7.37
2023-03-12T00:17:00.202Z,9.00
2023-03-12T00:19:27.697Z,10.20
2023-03-12T00:21:54.797Z,11.77
2023-03-12T00:24:21.762Z,12.70
2023-03-12T00:26:48.778Z,11.93
2023-03-12T00:29:15.758Z,12.70
2023-03-12T00:31:42.947Z,14.27
2023-03-12T00:34:10.795Z,11.00
2023-03-12T00:36:38.075Z,11.70
2023-03-12T00:39:04.950Z,13.93
2023-03-12T00:41:32.090Z,18.00
2023-03-12T00:43:59.210Z,14.70
2023-03-12T00:46:26.364Z,17.63
2023-03-12T00:48:53.157Z,14.77
2023-03-12T00:51:20.338Z,12.50
2023-03-12T00:53:47.198Z,17.90
2023-03-12T00:56:14.903Z,11.73
2023-03-12T00:58:42.799Z,8.57
2023-03-12T01:01:10.724Z,8.57
2023-03-12T01:03:37.764Z,8.53
2023-03-12T01:06:05.852Z,8.30
2023-03-12T01:08:33.157Z,8.57
2023-03-12T01:11:00.503Z,7.03
2023-03-12T01:13:27.606Z,9.97
2023-03-12T01:15:54.911Z,10.97
2023-03-12T01:18:21.865Z,8.23
2023-03-12T01:20:49.567Z,8.33
2023-03-12T01:23:16.677Z,7.80
2023-03-12T01:25:43.694Z,6.73
2023-03-12T01:28:10.512Z,8.00
2023-03-12T01:30:37.536Z,5.63
2023-03-12T01:33:04.507Z,8.07
2023-03-12T01:35:36.786Z,9.60
2023-03-12T01:38:03.699Z,7.33
2023-03-12T01:40:33.854Z,11.17
2023-03-12T01:43:29.094Z,13.57
2023-03-12T01:46:16.084Z,8.03
2023-03-12T01:48:45.973Z,8.40
2023-03-12T01:51:16.006Z,6.93
2023-03-12T01:53:47.069Z,6.83
2023-03-12T01:56:17.386Z,7.93
2023-03-12T01:58:50.652Z,6.13
2023-03-12T02:01:19.667Z,9.83
2023-03-12T02:03:50.359Z,9.50
2023-03-12T02:06:20.884Z,10.50
2023-03-12T02:08:48.197Z,7.57
2023-03-12T02:11:15.198Z,7.83
2023-03-12T02:13:43.012Z,9.07
2023-03-12T02:16:10.244Z,14.70
2023-03-12T02:18:37.100Z,11.50
2023-03-12T02:21:10.085Z,10.60
2023-03-12T02:23:47.718Z,9.27
2023-03-12T02:26:17.208Z,7.97
2023-03-12T02:28:45.912Z,7.00
2023-03-12T02:31:16.962Z,12.00
2023-03-12T02:33:44.208Z,7.80
2023-03-12T02:36:11.686Z,8.73
2023-03-12T02:38:49.163Z,6.30
2023-03-12T02:41:19.035Z,9.67
2023-03-12T02:43:49.422Z,9.50
2023-03-12T02:46:16.756Z,7.67
2023-03-12T02:48:43.686Z,9.90
2023-03-12T02:51:10.917Z,10.57
2023-03-12T02:53:37.909Z,6.47
2023-03-12T02:56:06.569Z,7.70
2023-03-12T02:58:33.492Z,14.30
2023-03-12T03:01:02.014Z,11.20
2023-03-12T03:03:28.892Z,10.23
2023-03-12T03:05:55.971Z,8.90
2023-03-12T03:08:22.893Z,10.43
2023-03-12T03:10:51.946Z,10.47
2023-03-12T03:13:18.880Z,6.67
2023-03-12T03:15:45.944Z,7.67
2023-03-12T03:18:12.891Z,5.80
2023-03-12T03:20:40.206Z,9.40
2023-03-12T03:23:06.915Z,8.17
2023-03-12T03:25:34.111Z,3.03
2023-03-12T03:28:01.034Z,4.50
2023-03-12T03:30:28.160Z,5.30
2023-03-12T03:32:55.202Z,8.07
2023-03-12T03:35:22.534Z,4.97
2023-03-12T03:37:49.563Z,6.93
2023-03-12T03:40:16.971Z,6.97
2023-03-12T03:42:43.890Z,4.37
2023-03-12T03:45:11.338Z,7.07
2023-03-12T03:47:40.555Z,5.07
2023-03-12T03:50:09.679Z,4.80
2023-03-12T03:52:36.602Z,9.53
2023-03-12T03:55:04.081Z,11.23
2023-03-12T03:57:32.110Z,10.70
2023-03-12T04:00:03.485Z,8.40
2023-03-12T04:02:40.480Z,17.63
2023-03-12T04:05:10.109Z,7.73
2023-03-12T04:07:37.360Z,12.53
2023-03-12T04:10:05.684Z,11.53
2023-03-12T04:12:32.586Z,10.40
2023-03-12T04:14:59.745Z,4.47
2023-03-12T04:17:26.641Z,11.83
2023-03-12T04:19:53.763Z,9.27
2023-03-12T04:22:20.655Z,14.70
2023-03-12T04:24:47.783Z,6.10
2023-03-12T04:27:14.870Z,8.83
2023-03-12T04:29:42.151Z,6.07
2023-03-12T04:32:15.329Z,7.10
2023-03-12T04:34:42.544Z,7.77
2023-03-12T04:37:11.381Z,10.73
2023-03-12T04:39:38.420Z,14.67
2023-03-12T04:42:05.466Z,5.70
2023-03-12T04:44:33.120Z,6.87
2023-03-12T04:47:00.130Z,3.57
2023-03-12T04:49:27.374Z,2.30
2023-03-12T04:51:55.300Z,4.97
2023-03-12T04:54:23.027Z,5.87
2023-03-12T04:56:50.935Z,7.03
2023-03-12T04:59:20.704Z,9.40
2023-03-12T05:01:47.727Z,5.63
2023-03-12T05:04:19.597Z,3.17
2023-03-12T05:06:46.624Z,7.33
2023-03-12T05:09:13.605Z,12.63
2023-03-12T05:11:41.242Z,2.57
2023-03-12T05:14:12.245Z,8.70
2023-03-12T05:16:39.679Z,4.43
2023-03-12T05:19:07.206Z,7.97
2023-03-12T05:21:34.522Z,8.70
2023-03-12T05:24:02.121Z,3.80
2023-03-12T05:26:32.163Z,10.27
2023-03-12T05:29:09.026Z,8.37
2023-03-12T05:31:36.572Z,7.40
2023-03-12T05:34:05.902Z,7.97
2023-03-12T05:36:36.316Z,4.33
2023-03-12T05:39:04.159Z,12.20
2023-03-12T05:41:33.132Z,6.73
2023-03-12T05:44:06.756Z,6.73
2023-03-12T05:46:35.250Z,10.10
2023-03-12T05:49:02.354Z,12.10
2023-03-12T05:51:32.920Z,2.03
2023-03-12T05:54:00.244Z,9.03
2023-03-12T05:56:28.001Z,5.57
2023-03-12T05:58:56.163Z,7.60
2023-03-12T06:01:26.114Z,9.43
2023-03-12T06:03:55.252Z,6.80
2023-03-12T06:06:24.774Z,10.20
2023-03-12T06:08:52.407Z,10.07
2023-03-12T06:11:19.183Z,9.87
2023-03-12T06:13:46.271Z,9.87
2023-03-12T06:16:19.789Z,7.67
2023-03-12T06:18:47.554Z,9.00
2023-03-12T06:21:19.286Z,8.33
2023-03-12T06:23:46.682Z,8.53
2023-03-12T06:26:20.743Z,6.90
2023-03-12T06:28:49.083Z,5.10
2023-03-12T06:31:17.399Z,7.13
2023-03-12T06:33:44.551Z,9.27
2023-03-12T06:36:12.149Z,5.33
2023-03-12T06:38:39.623Z,6.87
2023-03-12T06:41:12.404Z,7.53
2023-03-12T06:43:40.795Z,7.37
2023-03-12T06:46:09.942Z,5.33
2023-03-12T06:48:37.307Z,6.33
2023-03-12T06:51:04.775Z,9.03
2023-03-12T06:53:32.630Z,7.90
2023-03-12T06:55:59.685Z,9.77
2023-03-12T06:58:26.764Z,14.00
2023-03-12T07:00:55.095Z,9.87
2023-03-12T07:03:22.300Z,5.00
2023-03-12T07:05:50.600Z,5.73
2023-03-12T07:08:18.717Z,8.10
2023-03-12T07:10:46.153Z,4.93
2023-03-12T07:13:13.279Z,7.97
2023-03-12T07:15:40.362Z,9.77
2023-03-12T07:18:09.277Z,5.57
2023-03-12T07:20:38.798Z,7.03
2023-03-12T07:23:06.259Z,10.70
2023-03-12T07:25:40.193Z,10.87
2023-03-12T07:28:08.756Z,9.83
2023-03-12T07:30:36.593Z,7.73
2023-03-12T07:33:05.357Z,7.50
2023-03-12T07:35:32.949Z,14.77
2023-03-12T07:38:01.251Z,12.77
2023-03-12T07:40:29.246Z,9.87
2023-03-12T07:42:56.993Z,6.13
2023-03-12T07:45:24.717Z,4.67
2023-03-12T07:47:52.033Z,7.40
2023-03-12T07:50:19.329Z,6.27
2023-03-12T07:52:46.900Z,7.87
2023-03-12T07:55:14.203Z,7.33
2023-03-12T07:57:41.342Z,7.50
2023-03-12T08:00:10.444Z,9.03
2023-03-12T08:02:41.120Z,7.27
2023-03-12T08:05:08.432Z,7.40
2023-03-12T08:07:35.857Z,6.47
2023-03-12T08:10:05.914Z,6.43
2023-03-12T08:12:33.425Z,10.67
2023-03-12T08:15:00.399Z,8.43
2023-03-12T08:17:27.419Z,7.80
2023-03-12T08:19:54.215Z,14.17
2023-03-12T08:22:21.267Z,12.30
2023-03-12T08:24:48.070Z,9.97
2023-03-12T08:27:15.133Z,17.10
2023-03-12T08:29:42.262Z,19.30
2023-03-12T08:32:14.122Z,18.47
2023-03-12T08:34:41.111Z,12.40
2023-03-12T08:37:08.138Z,12.30
2023-03-12T08:39:35.132Z,9.10
2023-03-12T08:42:02.202Z,16.20
2023-03-12T08:44:29.145Z,10.93
2023-03-12T08:46:56.168Z,7.23
2023-03-12T08:49:23.264Z,12.93
2023-03-12T08:51:51.915Z,7.23
2023-03-12T08:54:19.958Z,11.47
2023-03-12T08:56:51.995Z,9.13
2023-03-12T08:59:20.657Z,9.83
2023-03-12T09:01:48.119Z,10.57
2023-03-12T09:04:16.288Z,9.57
2023-03-12T09:06:43.520Z,10.73
2023-03-12T09:09:10.555Z,12.03
2023-03-12T09:11:42.546Z,6.20
2023-03-12T09:16:58.342Z,10.93
2023-03-12T09:19:25.356Z,6.60
2023-03-12T09:21:52.418Z,6.83
2023-03-12T09:24:19.565Z,6.10
2023-03-12T09:26:47.461Z,6.10
2023-03-12T09:29:14.140Z,8.37
2023-03-12T09:31:41.299Z,9.67
2023-03-12T09:34:08.113Z,12.07
2023-03-12T09:36:35.914Z,10.67
2023-03-12T09:39:02.914Z,9.50
2023-03-12T09:41:35.421Z,10.10
2023-03-12T09:44:19.433Z,6.17
2023-03-12T09:47:16.263Z,7.90
2023-03-12T09:49:49.998Z,11.23
2023-03-12T09:52:44.378Z,7.70
2023-03-12T09:55:16.485Z,11.60
2023-03-12T09:57:44.915Z,11.23
2023-03-12T10:00:15.451Z,13.27
2023-03-12T10:02:53.500Z,9.37
2023-03-12T10:05:33.178Z,12.07
2023-03-12T10:08:23.977Z,8.73
2023-03-12T10:11:00.702Z,8.47
2023-03-12T10:13:43.825Z,8.83
2023-03-12T10:16:36.969Z,10.13
2023-03-12T10:19:31.314Z,12.70
2023-03-12T10:22:05.434Z,8.20
2023-03-12T10:25:16.024Z,7.37
2023-03-12T10:27:43.352Z,9.70
2023-03-12T10:30:31.745Z,15.63
2023-03-12T10:33:04.277Z,13.83
2023-03-12T10:35:31.750Z,7.63
2023-03-12T10:38:09.640Z,13.80
2023-03-12T10:40:39.006Z,9.27
2023-03-12T10:43:07.108Z,4.23
2023-03-12T10:45:47.858Z,10.13
2023-03-12T10:48:24.439Z,6.17
2023-03-12T10:51:09.478Z,12.03
2023-03-12T10:53:39.496Z,9.63
2023-03-12T10:56:09.793Z,8.50
2023-03-12T10:58:45.721Z,14.20
2023-03-12T11:01:20.382Z,10.27
2023-03-12T11:03:47.514Z,6.43
2023-03-12T11:06:34.768Z,4.70
2023-03-12T11:09:17.073Z,8.20
2023-03-12T11:11:47.678Z,8.43
2023-03-12T11:14:19.240Z,7.40
2023-03-12T11:16:46.756Z,8.27
2023-03-12T11:19:25.651Z,7.00
2023-03-12T11:22:01.550Z,6.53
2023-03-12T11:24:28.545Z,7.83
2023-03-12T11:27:40.315Z,10.03
2023-03-12T11:30:31.938Z,8.27
2023-03-12T11:33:02.056Z,11.10
2023-03-12T11:36:04.418Z,11.80
2023-03-12T11:38:40.259Z,15.17
2023-03-12T11:41:45.293Z,18.77
2023-03-12T11:44:24.145Z,29.83
2023-03-12T11:46:53.639Z,42.80
2023-03-12T11:49:54.541Z,29.30
2023-03-12T11:52:33.128Z,13.80
2023-03-12T11:55:16.765Z,15.10
2023-03-12T11:58:12.879Z,11.63
2023-03-12T12:01:09.031Z,9.73
2023-03-12T12:03:53.855Z,7.37
2023-03-12T12:06:32.546Z,6.90
2023-03-12T12:09:23.197Z,10.93
2023-03-12T12:12:07.062Z,12.27
2023-03-12T12:14:52.735Z,10.73
2023-03-12T12:17:22.348Z,9.30
2023-03-12T12:20:09.311Z,7.87
2023-03-12T12:22:49.553Z,12.40
2023-03-12T12:25:22.382Z,6.53
2023-03-12T12:28:34.558Z,6.40
2023-03-12T12:31:24.427Z,8.90
2023-03-12T12:34:17.563Z,8.57
2023-03-12T12:36:50.159Z,6.53
2023-03-12T12:39:32.587Z,6.70
2023-03-12T12:42:03.894Z,4.20
2023-03-12T12:44:41.020Z,10.43
2023-03-12T12:47:17.344Z,5.43
2023-03-12T12:49:50.247Z,8.60
2023-03-12T12:52:22.029Z,7.10
2023-03-12T12:55:03.362Z,7.27
2023-03-12T12:57:45.738Z,3.50
2023-03-12T13:00:34.336Z,4.93
2023-03-12T13:03:01.843Z,5.20
2023-03-12T13:05:45.411Z,6.27
2023-03-12T13:08:44.113Z,10.00
2023-03-12T13:11:20.327Z,11.37
2023-03-12T13:14:11.620Z,7.07
2023-03-12T13:16:43.294Z,7.83
2023-03-12T13:19:13.176Z,10.03
2023-03-12T13:22:22.135Z,11.43
2023-03-12T13:24:59.695Z,12.27
2023-03-12T13:27:36.349Z,6.88
2023-03-12T13:30:33.887Z,9.07
2023-03-12T13:33:04.044Z,5.87
2023-03-12T13:35:36.322Z,9.60
2023-03-12T13:38:06.723Z,7.27
2023-03-12T13:40:39.204Z,9.53
2023-03-12T13:43:30.279Z,9.33
2023-03-12T13:45:59.713Z,9.07
2023-03-12T13:48:27.370Z,6.67
2023-03-12T13:51:02.361Z,8.07
2023-03-12T13:53:35.761Z,8.83
2023-03-12T13:56:12.192Z,9.20
2023-03-12T13:58:55.226Z,11.17
2023-03-12T14:01:26.853Z,7.20
2023-03-12T14:03:58.912Z,7.43
2023-03-12T14:06:30.227Z,7.63
2023-03-12T14:09:03.517Z,11.53
2023-03-12T14:11:36.270Z,8.97
2023-03-12T14:14:25.275Z,9.47
2023-03-12T14:16:55.697Z,10.03
2023-03-12T14:19:26.350Z,8.03
2023-03-12T14:21:56.087Z,7.83
2023-03-12T14:24:37.083Z,9.07
2023-03-12T14:27:06.975Z,9.70
2023-03-12T14:29:37.096Z,16.17
2023-03-12T14:32:08.686Z,14.10
2023-03-12T14:34:42.545Z,10.23
2023-03-12T14:37:18.148Z,6.83
2023-03-12T14:39:56.356Z,7.33
2023-03-12T14:42:27.786Z,8.37
2023-03-12T14:45:19.654Z,8.13
2023-03-12T14:47:52.202Z,9.57
2023-03-12T14:50:20.642Z,7.87
2023-03-12T14:52:47.983Z,8.88
2023-03-12T14:55:19.130Z,6.20
2023-03-12T14:57:46.190Z,5.90
2023-03-12T15:00:25.378Z,6.73
2023-03-12T15:02:58.752Z,10.27
2023-03-12T15:05:26.715Z,12.93
2023-03-12T15:08:01.372Z,16.83
2023-03-12T15:10:30.263Z,10.80
2023-03-12T15:12:59.959Z,15.83
2023-03-12T15:15:36.095Z,12.00
2023-03-12T15:18:07.765Z,11.30
2023-03-12T15:20:36.002Z,10.60
2023-03-12T15:23:04.528Z,13.97
2023-03-12T15:25:33.748Z,12.50
2023-03-12T15:28:24.061Z,10.53
2023-03-12T15:31:08.147Z,8.43
2023-03-12T15:33:34.991Z,12.27
2023-03-12T15:36:07.672Z,9.17
2023-03-12T15:38:38.253Z,9.50
2023-03-12T15:41:09.474Z,6.37
2023-03-12T15:43:37.667Z,8.30
2023-03-12T15:46:07.007Z,11.67
2023-03-12T15:48:37.847Z,9.20
2023-03-12T15:51:14.346Z,9.33
2023-03-12T15:53:41.234Z,6.50
2023-03-12T15:56:11.230Z,8.70
2023-03-12T15:58:42.058Z,6.60
2023-03-12T16:01:18.617Z,11.43
2023-03-12T16:03:46.121Z,9.23
2023-03-12T16:06:15.081Z,8.10
2023-03-12T16:08:48.530Z,5.40
2023-03-12T16:11:19.317Z,10.70
2023-03-12T16:13:48.599Z,12.10
2023-03-12T16:16:15.838Z,3.30
2023-03-12T16:18:43.521Z,6.63
2023-03-12T16:21:11.174Z,5.70
2023-03-12T16:23:38.082Z,4.27
2023-03-12T16:26:05.910Z,6.23
2023-03-12T16:28:35.761Z,4.97
2023-03-12T16:31:02.971Z,9.63
2023-03-12T16:33:29.759Z,8.77
2023-03-12T16:35:57.115Z,4.77
2023-03-12T16:38:23.865Z,4.30
2023-03-12T16:40:51.850Z,7.60
2023-03-12T16:43:24.458Z,6.10
2023-03-12T16:45:53.019Z,4.60
2023-03-12T16:48:24.242Z,5.20
2023-03-12T16:50:54.609Z,4.97
2023-03-12T16:53:21.910Z,9.13
2023-03-12T16:55:55.549Z,6.13
2023-03-12T16:58:24.020Z,4.97
2023-03-12T17:00:53.280Z,5.97
2023-03-12T17:03:38.400Z,5.73
2023-03-12T17:06:07.465Z,10.00
2023-03-12T17:08:35.930Z,3.63
2023-03-12T17:11:04.446Z,7.63
2023-03-12T17:13:31.278Z,8.60
2023-03-12T17:15:58.790Z,8.00
2023-03-12T17:18:25.774Z,7.60
2023-03-12T17:20:52.910Z,6.87
2023-03-12T17:23:19.890Z,6.80
2023-03-12T17:25:47.040Z,5.30
2023-03-12T17:28:15.392Z,9.47
2023-03-12T17:30:42.910Z,6.33
2023-03-12T17:33:13.166Z,7.07
2023-03-12T17:35:40.890Z,5.30
2023-03-12T17:38:07.980Z,4.43
2023-03-12T17:40:36.230Z,7.33
2023-03-12T17:43:02.946Z,6.83
2023-03-12T17:45:30.086Z,7.83
2023-03-12T17:47:56.827Z,10.47
2023-03-12T17:50:23.834Z,12.30
2023-03-12T17:52:50.948Z,13.13
2023-03-12T17:55:18.011Z,16.07
2023-03-12T17:57:44.897Z,14.97
2023-03-12T18:00:13.002Z,12.13
2023-03-12T18:02:41.283Z,13.43
2023-03-12T18:05:10.816Z,16.73
2023-03-12T18:07:38.155Z,27.77
2023-03-12T18:10:07.657Z,29.97
2023-03-12T18:12:35.128Z,18.73
2023-03-12T18:15:02.140Z,19.47
2023-03-12T18:17:29.017Z,18.80
2023-03-12T18:19:56.021Z,18.83
2023-03-12T18:22:24.368Z,22.40
2023-03-12T18:24:51.490Z,21.50
2023-03-12T18:27:18.281Z,25.87
2023-03-12T18:29:45.267Z,18.80
2023-03-12T18:32:11.949Z,25.67
2023-03-12T18:34:42.152Z,26.83
2023-03-12T18:37:09.183Z,24.50
2023-03-12T18:39:36.146Z,18.60
2023-03-12T18:42:02.932Z,27.80
2023-03-12T18:44:30.082Z,19.13
2023-03-12T18:46:57.062Z,19.97
2023-03-12T18:49:24.059Z,33.43
2023-03-12T18:51:55.794Z,38.90
2023-03-12T18:54:24.745Z,38.67
2023-03-12T18:56:51.706Z,48.53
2023-03-12T18:59:18.804Z,69.17
2023-03-12T19:01:45.575Z,71.00
2023-03-12T19:04:17.585Z,108.40
2023-03-12T19:06:51.312Z,107.77
2023-03-12T19:09:19.334Z,97.83
2023-03-12T19:11:47.950Z,139.30
2023-03-12T19:14:15.464Z,148.60
2023-03-12T19:16:42.396Z,120.47
2023-03-12T19:19:09.458Z,163.23
2023-03-12T19:21:36.263Z,155.60
2023-03-12T19:24:03.675Z,79.07
2023-03-12T19:26:30.482Z,76.30
2023-03-12T19:28:57.527Z,33.20
2023-03-12T19:31:25.325Z,55.03
2023-03-12T19:33:52.558Z,59.23
2023-03-12T19:36:19.317Z,83.33
2023-03-12T19:38:46.390Z,85.53
2023-03-12T19:41:13.144Z,113.20
2023-03-12T19:43:40.939Z,34.80
2023-03-12T19:46:07.954Z,20.83
2023-03-12T19:48:35.055Z,11.63
2023-03-12T19:51:10.392Z,13.13
2023-03-12T19:53:37.815Z,14.90
2023-03-12T19:56:05.319Z,14.43
2023-03-12T19:58:32.361Z,16.00
2023-03-12T20:01:01.404Z,18.67
2023-03-12T20:03:30.724Z,13.37
2023-03-12T20:05:57.462Z,22.47
2023-03-12T20:08:30.267Z,14.77
2023-03-12T20:11:09.670Z,17.60
2023-03-12T20:13:39.877Z,11.63
2023-03-12T20:16:07.689Z,14.47
2023-03-12T20:18:34.982Z,21.30
2023-03-12T20:21:01.852Z,17.97
2023-03-12T20:23:28.977Z,15.17
2023-03-12T20:25:55.759Z,19.13
2023-03-12T20:28:22.736Z,13.90
2023-03-12T20:30:49.540Z,20.27
2023-03-12T20:33:16.731Z,21.30
2023-03-12T20:35:43.552Z,15.27
2023-03-12T20:38:10.717Z,18.30
2023-03-12T20:40:37.642Z,16.77
2023-03-12T20:43:05.139Z,22.33
2023-03-12T20:45:33.219Z,19.90
2023-03-12T20:48:00.884Z,17.43
2023-03-12T20:50:28.171Z,18.93
2023-03-12T20:52:55.212Z,22.70
2023-03-12T20:55:22.039Z,21.27
2023-03-12T20:57:49.273Z,24.83
2023-03-12T21:00:16.423Z,20.20
2023-03-12T21:02:43.596Z,22.80
2023-03-12T21:05:11.475Z,22.97
2023-03-12T21:07:38.451Z,28.47
2023-03-12T21:10:05.925Z,24.53
2023-03-12T21:12:32.991Z,22.30
2023-03-12T21:15:06.358Z,19.30
2023-03-12T21:17:35.051Z,25.27
2023-03-12T21:20:09.660Z,29.67
2023-03-12T21:22:37.300Z,25.57
2023-03-12T21:25:04.997Z,23.70
2023-03-12T21:27:41.152Z,25.63
2023-03-12T21:30:15.198Z,28.33
2023-03-12T21:32:42.546Z,24.17
2023-03-12T21:35:09.838Z,26.33
2023-03-12T21:37:37.250Z,23.60
2023-03-12T21:40:04.998Z,26.13
2023-03-12T21:42:33.391Z,21.07
2023-03-12T21:45:00.484Z,27.70
2023-03-12T21:47:27.475Z,23.40
2023-03-12T21:49:54.376Z,24.03
2023-03-12T21:52:21.338Z,20.67
2023-03-12T21:54:48.193Z,23.03
2023-03-12T21:57:15.197Z,24.03
2023-03-12T21:59:41.999Z,21.53
2023-03-12T22:02:12.923Z,21.23
2023-03-12T22:04:39.826Z,25.20
2023-03-12T22:07:07.135Z,26.33
2023-03-12T22:09:33.910Z,22.17
2023-03-12T22:12:01.806Z,19.00
2023-03-12T22:14:28.788Z,18.63
2023-03-12T22:16:55.914Z,20.43
2023-03-12T22:19:24.032Z,33.43
2023-03-12T22:21:51.070Z,24.53
2023-03-12T22:24:17.858Z,24.70
2023-03-12T22:26:46.024Z,25.60
2023-03-12T22:29:13.081Z,23.10
2023-03-12T22:31:40.295Z,30.30
2023-03-12T22:34:07.137Z,28.10
2023-03-12T22:36:34.243Z,30.73
2023-03-12T22:39:00.991Z,23.27
2023-03-12T22:41:29.470Z,24.43
2023-03-12T22:44:01.108Z,26.87
2023-03-12T22:46:29.056Z,24.63
2023-03-12T22:48:58.237Z,21.93
2023-03-12T22:51:26.587Z,24.60
2023-03-12T22:53:53.711Z,22.93
2023-03-12T22:56:21.309Z,25.87
2023-03-12T22:58:48.885Z,27.20
2023-03-12T23:01:21.550Z,19.50
2023-03-12T23:03:49.102Z,24.33
2023-03-12T23:06:24.212Z,25.47
2023-03-12T23:08:51.973Z,24.80
2023-03-12T23:11:20.766Z,28.70
2023-03-12T23:13:49.714Z,26.00
2023-03-12T23:16:20.636Z,36.37
2023-03-12T23:18:48.182Z,26.30
2023-03-12T23:21:18.282Z,30.83
2023-03-12T23:23:45.372Z,26.10
2023-03-12T23:26:18.045Z,27.93
2023-03-12T23:28:47.195Z,23.23
2023-03-12T23:31:16.333Z,23.33
2023-03-12T23:33:44.095Z,20.20
2023-03-12T23:36:15.271Z,27.03
2023-03-12T23:38:42.643Z,25.43
2023-03-12T23:41:15.322Z,25.83
2023-03-12T23:43:42.813Z,24.63
2023-03-12T23:46:11.406Z,24.77
2023-03-12T23:48:39.365Z,25.83
2023-03-12T23:51:28.023Z,27.07
2023-03-12T23:53:58.202Z,24.07
2023-03-12T23:56:27.652Z,21.67
2023-03-12T23:58:54.402Z,24.70
